New Hartfd, New York
Current Conditions -  °F | °C
As of 9:53 AM on Wednesday 22 Oct 2014 (Local Time) from KRME Reporting Station
Broken Clouds Broken Clouds  
Wind Chill: 50°   Ceiling: 2900
Heat Index: 50°   Visibility: 10mi
Dew Point: 45°   Wind: 7mph
Humidity: 83%   Direction: 350°N
Pressure: 30.14"   Gusts: NA
Location:  43.06°N, 75.2864°W
Report Text: KRME 221353Z 35006KT 10SM BKN029 BKN075 10/07 A3014 RMK AO2 SLP205 T01000072
Loading
Personal Weather Stations






























Interactive Weather Map
Tropical Storm Tracking
New forecast layout! Learn more

10-Day Weather Forecast

Advertisements
Track Severe Weather on mobile